Time;durP1;ratioP1;P1;durP2;ratioP2;P2;SDS_P1;SDS_P2;PMS_P1;PMS_P2;Temp;Humidity;BMP_temperature;BMP_pressure;BME280_temperature;BME280_humidity;BME280_pressure;Samples;Min_cycle;Max_cycle;Signal;HPM_P1;HPM_P2
2022/11/21 00:01:14;;;;;;;27.15;19.45;;;;;;;;;;5009093;28;20491;-71
2022/11/21 00:03:40;;;;;;;27.30;18.42;;;;;;;;;;5009362;28;20451;-71
2022/11/21 00:06:07;;;;;;;26.83;18.98;;;;;;;;;;5008414;28;20511;-71
2022/11/21 00:08:33;;;;;;;28.85;19.42;;;;;;;;;;5010174;28;20068;-71
2022/11/21 00:10:59;;;;;;;29.48;20.10;;;;;;;;;;5002593;28;20050;-71
2022/11/21 00:13:26;;;;;;;28.27;18.77;;;;;;;;;;4989425;28;20144;-71
2022/11/21 00:15:52;;;;;;;27.58;19.88;;;;;;;;;;5011870;28;20037;-71
2022/11/21 00:18:18;;;;;;;28.13;19.95;;;;;;;;;;5013619;28;20065;-71
2022/11/21 00:20:44;;;;;;;25.90;19.33;;;;;;;;;;5016533;28;20089;-71
2022/11/21 00:23:10;;;;;;;29.38;19.63;;;;;;;;;;5013758;28;20041;-71
2022/11/21 00:25:37;;;;;;;26.85;19.17;;;;;;;;;;5016994;28;20058;-71
2022/11/21 00:28:03;;;;;;;27.38;19.42;;;;;;;;;;5016980;28;20049;-71
2022/11/21 00:30:29;;;;;;;28.65;18.70;;;;;;;;;;5017114;28;20053;-71
2022/11/21 00:32:57;;;;;;;26.15;19.45;;;;;;;;;;5017079;28;20042;-71
2022/11/21 00:35:23;;;;;;;28.55;19.50;;;;;;;;;;5016966;28;20045;-71
2022/11/21 00:37:49;;;;;;;31.50;19.92;;;;;;;;;;5014247;28;20096;-71
2022/11/21 00:40:17;;;;;;;27.58;20.25;;;;;;;;;;5008981;28;20420;-71
2022/11/21 00:42:43;;;;;;;28.75;19.83;;;;;;;;;;5006911;28;20042;-71
2022/11/21 00:45:09;;;;;;;29.27;19.55;;;;;;;;;;5007407;28;20049;-71
2022/11/21 00:47:35;;;;;;;28.00;19.45;;;;;;;;;;5008156;28;20105;-71
2022/11/21 00:50:01;;;;;;;29.35;20.30;;;;;;;;;;5008759;28;20046;-71
2022/11/21 00:52:27;;;;;;;28.83;20.45;;;;;;;;;;4972203;28;20057;-71
2022/11/21 00:54:53;;;;;;;30.38;19.75;;;;;;;;;;5012770;28;20046;-71
2022/11/21 00:57:19;;;;;;;29.08;20.20;;;;;;;;;;4997833;28;20057;-71
2022/11/21 00:59:45;;;;;;;28.25;20.08;;;;;;;;;;5016037;28;20111;-71
2022/11/21 01:02:12;;;;;;;27.50;19.45;;;;;;;;;;4995535;28;20053;-71
2022/11/21 01:04:38;;;;;;;26.13;17.95;;;;;;;;;;5012735;28;20129;-71
2022/11/21 01:07:04;;;;;;;28.40;19.80;;;;;;;;;;5011842;28;20500;-71
2022/11/21 01:09:30;;;;;;;29.30;20.15;;;;;;;;;;5011805;28;20539;-71
2022/11/21 01:11:57;;;;;;;28.08;19.20;;;;;;;;;;5011773;28;20053;-71
2022/11/21 01:14:23;;;;;;;28.30;20.10;;;;;;;;;;5011420;28;20500;-71
2022/11/21 01:16:49;;;;;;;26.92;19.63;;;;;;;;;;5015952;28;20515;-71
2022/11/21 01:19:15;;;;;;;27.83;19.42;;;;;;;;;;5016055;28;20123;-71
2022/11/21 01:21:41;;;;;;;30.02;20.08;;;;;;;;;;5014626;28;20042;-71
2022/11/21 01:24:10;;;;;;;27.20;19.30;;;;;;;;;;4997601;28;20108;-71
2022/11/21 01:26:36;;;;;;;28.17;20.10;;;;;;;;;;5012483;28;20057;-71
2022/11/21 01:29:03;;;;;;;28.73;21.02;;;;;;;;;;5014810;28;20105;-71
2022/11/21 01:31:30;;;;;;;29.25;20.42;;;;;;;;;;5015739;28;20053;-71
2022/11/21 01:33:57;;;;;;;30.20;20.27;;;;;;;;;;5015809;28;20050;-72
2022/11/21 01:36:24;;;;;;;26.52;19.05;;;;;;;;;;4997512;28;20057;-71
2022/11/21 01:38:51;;;;;;;26.25;19.00;;;;;;;;;;5015616;28;20050;-71
2022/11/21 01:41:19;;;;;;;29.52;19.83;;;;;;;;;;5014793;28;20476;-71
2022/11/21 01:43:46;;;;;;;29.27;19.63;;;;;;;;;;4997064;28;20048;-71
2022/11/21 01:46:22;;;;;;;27.52;19.92;;;;;;;;;;4993844;28;20129;-71
2022/11/21 01:49:06;;;;;;;28.25;20.02;;;;;;;;;;5014408;28;20038;-71
2022/11/21 01:51:38;;;;;;;28.20;18.92;;;;;;;;;;4995210;28;20038;-71
2022/11/21 01:54:04;;;;;;;28.95;19.45;;;;;;;;;;5012589;28;20042;-71
2022/11/21 01:56:32;;;;;;;29.73;18.70;;;;;;;;;;5011146;28;20050;-71
2022/11/21 01:59:00;;;;;;;28.05;20.27;;;;;;;;;;5002138;28;20042;-71
2022/11/21 02:01:27;;;;;;;30.85;18.98;;;;;;;;;;5013918;28;20069;-71
2022/11/21 02:03:54;;;;;;;27.80;18.85;;;;;;;;;;5012424;28;20412;-71
2022/11/21 02:06:20;;;;;;;28.52;18.77;;;;;;;;;;5011868;28;20061;-71
2022/11/21 02:08:46;;;;;;;28.98;19.50;;;;;;;;;;5013814;28;20531;-71
2022/11/21 02:11:33;;;;;;;28.58;20.02;;;;;;;;;;5013952;28;20038;-71
2022/11/21 02:14:00;;;;;;;28.15;19.15;;;;;;;;;;5006325;28;20481;-71
2022/11/21 02:16:26;;;;;;;27.98;19.27;;;;;;;;;;5010560;28;20048;-71
2022/11/21 02:18:52;;;;;;;27.50;19.15;;;;;;;;;;5014492;28;20121;-71
2022/11/21 02:21:26;;;;;;;26.48;18.23;;;;;;;;;;5013189;28;20049;-71
2022/11/21 02:24:04;;;;;;;27.23;18.70;;;;;;;;;;5013013;28;20108;-72
2022/11/21 02:26:30;;;;;;;31.30;19.80;;;;;;;;;;5014107;28;20412;-71
2022/11/21 02:28:57;;;;;;;28.45;19.05;;;;;;;;;;5014076;28;20044;-71
2022/11/21 02:31:23;;;;;;;28.70;19.92;;;;;;;;;;5013445;28;20046;-71
2022/11/21 02:33:49;;;;;;;28.95;20.75;;;;;;;;;;5013151;28;20041;-71
2022/11/21 02:36:34;;;;;;;29.23;20.60;;;;;;;;;;4996529;28;20045;-72
2022/11/21 02:39:00;;;;;;;32.60;21.92;;;;;;;;;;5008756;28;20046;-71
2022/11/21 02:41:27;;;;;;;30.75;20.40;;;;;;;;;;5014243;28;20053;-71
2022/11/21 02:44:05;;;;;;;30.27;19.67;;;;;;;;;;5010397;28;20065;-71
2022/11/21 02:46:33;;;;;;;30.98;20.90;;;;;;;;;;5012631;28;20526;-71
2022/11/21 02:48:59;;;;;;;33.47;21.30;;;;;;;;;;5012175;28;20045;-71
2022/11/21 02:51:25;;;;;;;28.27;19.90;;;;;;;;;;5012434;28;20053;-71
2022/11/21 02:53:51;;;;;;;32.15;21.70;;;;;;;;;;5012669;28;20040;-71
2022/11/21 02:56:17;;;;;;;32.20;21.52;;;;;;;;;;5013729;28;20050;-72
2022/11/21 02:58:43;;;;;;;31.40;21.52;;;;;;;;;;5013049;28;20049;-71
2022/11/21 03:01:09;;;;;;;31.23;20.63;;;;;;;;;;5013233;28;20069;-71
2022/11/21 03:03:35;;;;;;;33.83;21.67;;;;;;;;;;5011339;28;20404;-71
2022/11/21 03:06:01;;;;;;;30.45;20.27;;;;;;;;;;5008629;28;20116;-72
2022/11/21 03:08:27;;;;;;;29.85;20.02;;;;;;;;;;5012438;28;20056;-71
2022/11/21 03:10:53;;;;;;;29.80;19.35;;;;;;;;;;5006684;28;20076;-71
2022/11/21 03:13:19;;;;;;;31.92;20.05;;;;;;;;;;5008113;28;20048;-71
2022/11/21 03:15:45;;;;;;;32.10;19.70;;;;;;;;;;5010775;28;20056;-71
2022/11/21 03:18:12;;;;;;;30.08;19.65;;;;;;;;;;5009939;28;20045;-71
2022/11/21 03:20:38;;;;;;;29.70;19.70;;;;;;;;;;5012946;28;20510;-71
2022/11/21 03:23:04;;;;;;;35.20;21.45;;;;;;;;;;5012679;28;20042;-71
2022/11/21 03:25:30;;;;;;;34.10;22.17;;;;;;;;;;5011587;28;20046;-71
2022/11/21 03:27:56;;;;;;;32.97;21.92;;;;;;;;;;5013362;28;20041;-71
2022/11/21 03:30:23;;;;;;;31.15;20.38;;;;;;;;;;4997520;28;20505;-71
2022/11/21 03:32:49;;;;;;;33.70;20.75;;;;;;;;;;5008088;28;20050;-71
2022/11/21 03:35:15;;;;;;;31.63;21.15;;;;;;;;;;5011387;28;20085;-71
2022/11/21 03:37:42;;;;;;;191.30;60.22;;;;;;;;;;5011797;28;20041;-72
2022/11/21 03:40:08;;;;;;;33.42;20.48;;;;;;;;;;5012752;28;20522;-72
2022/11/21 03:42:34;;;;;;;37.20;23.13;;;;;;;;;;5011784;28;20042;-71
2022/11/21 03:45:00;;;;;;;36.47;22.50;;;;;;;;;;5012449;28;20041;-71
2022/11/21 03:47:26;;;;;;;34.35;22.02;;;;;;;;;;5003306;28;20496;-71
2022/11/21 03:49:52;;;;;;;31.00;21.15;;;;;;;;;;5010931;28;20061;-71
2022/11/21 03:52:19;;;;;;;36.70;21.08;;;;;;;;;;5011980;28;20049;-71
2022/11/21 03:54:45;;;;;;;40.80;23.08;;;;;;;;;;5011902;28;20455;-71
2022/11/21 03:57:11;;;;;;;46.45;24.05;;;;;;;;;;5013396;28;20045;-71
2022/11/21 03:59:37;;;;;;;39.13;23.42;;;;;;;;;;5011947;28;20041;-72
2022/11/21 04:02:03;;;;;;;43.55;24.27;;;;;;;;;;4993705;28;20092;-71
2022/11/21 04:04:29;;;;;;;41.35;25.48;;;;;;;;;;5010652;28;20045;-71
2022/11/21 04:06:55;;;;;;;41.05;24.10;;;;;;;;;;5012115;28;20053;-71
2022/11/21 04:09:21;;;;;;;39.78;23.90;;;;;;;;;;5009998;28;20049;-71
2022/11/21 04:11:47;;;;;;;41.47;24.25;;;;;;;;;;5010428;28;20045;-71
2022/11/21 04:14:13;;;;;;;40.25;25.00;;;;;;;;;;5008454;28;20049;-71
2022/11/21 04:16:39;;;;;;;40.92;23.73;;;;;;;;;;5010090;28;20038;-71
2022/11/21 04:19:05;;;;;;;31.00;20.98;;;;;;;;;;5010392;28;20096;-71
2022/11/21 04:21:31;;;;;;;32.80;21.33;;;;;;;;;;5011472;28;20042;-71
2022/11/21 04:23:57;;;;;;;31.10;21.02;;;;;;;;;;5011360;28;20455;-73
2022/11/21 04:26:23;;;;;;;33.85;21.23;;;;;;;;;;5010340;28;20503;-71
2022/11/21 04:28:49;;;;;;;45.72;27.08;;;;;;;;;;5011765;28;20041;-71
2022/11/21 04:31:15;;;;;;;41.90;26.60;;;;;;;;;;5011721;28;20050;-71
2022/11/21 04:33:41;;;;;;;40.55;25.80;;;;;;;;;;4993300;28;20092;-71
2022/11/21 04:36:08;;;;;;;37.42;23.85;;;;;;;;;;5010547;28;20093;-71
2022/11/21 04:38:34;;;;;;;34.70;22.90;;;;;;;;;;5010976;28;20121;-71
2022/11/21 04:41:00;;;;;;;34.58;22.42;;;;;;;;;;5010023;28;20054;-71
2022/11/21 04:43:26;;;;;;;32.35;21.73;;;;;;;;;;5002230;28;20046;-71
2022/11/21 04:45:52;;;;;;;32.65;21.65;;;;;;;;;;5007410;28;20046;-71
2022/11/21 04:48:18;;;;;;;32.70;21.15;;;;;;;;;;5010698;28;20057;-70
2022/11/21 04:50:45;;;;;;;32.45;20.90;;;;;;;;;;5010355;28;20046;-71
2022/11/21 04:53:11;;;;;;;31.70;20.95;;;;;;;;;;4993646;28;20061;-71
2022/11/21 04:55:37;;;;;;;31.90;20.90;;;;;;;;;;5008931;28;20108;-71
2022/11/21 04:58:03;;;;;;;30.98;20.00;;;;;;;;;;5011938;28;20050;-71
2022/11/21 05:00:29;;;;;;;34.17;21.15;;;;;;;;;;5010141;28;20457;-71
2022/11/21 05:03:01;;;;;;;35.95;21.45;;;;;;;;;;5010234;28;20507;-71
2022/11/21 05:05:27;;;;;;;34.65;21.52;;;;;;;;;;5011141;28;20054;-70
2022/11/21 05:07:53;;;;;;;36.95;22.75;;;;;;;;;;5013385;28;20508;-71
2022/11/21 05:10:19;;;;;;;35.47;22.13;;;;;;;;;;4965066;28;20404;-71
2022/11/21 05:15:30;;;;;;;37.70;23.13;;;;;;;;;;5010707;28;20073;-71
2022/11/21 05:17:58;;;;;;;35.80;22.63;;;;;;;;;;5012132;28;20038;-71
2022/11/21 05:20:24;;;;;;;40.47;24.08;;;;;;;;;;4996391;28;20054;-71
2022/11/21 05:22:51;;;;;;;40.33;23.83;;;;;;;;;;5014038;28;20469;-71
2022/11/21 05:25:17;;;;;;;39.28;23.85;;;;;;;;;;5012622;28;20095;-71
2022/11/21 05:27:43;;;;;;;34.33;21.98;;;;;;;;;;5013808;28;20061;-72
2022/11/21 05:30:10;;;;;;;35.63;22.48;;;;;;;;;;5014627;28;20050;-72
2022/11/21 05:32:36;;;;;;;34.13;22.40;;;;;;;;;;5015899;28;20050;-71
2022/11/21 05:35:02;;;;;;;33.80;22.73;;;;;;;;;;5012362;28;20128;-71
2022/11/21 05:37:28;;;;;;;33.78;21.27;;;;;;;;;;5012955;28;20436;-72
2022/11/21 05:39:54;;;;;;;31.75;21.50;;;;;;;;;;5014483;28;20046;-71
2022/11/21 05:43:44;;;;;;;34.15;22.90;;;;;;;;;;5014805;28;20052;-71
2022/11/21 05:45:07;;;;;;;35.53;22.23;;;;;;;;;;5012352;28;20053;-71
2022/11/21 05:47:33;;;;;;;34.13;21.38;;;;;;;;;;5014683;28;20116;-71
2022/11/21 05:49:59;;;;;;;34.38;21.80;;;;;;;;;;5014326;28;20046;-71
2022/11/21 05:52:25;;;;;;;37.95;22.20;;;;;;;;;;5013709;28;20046;-71
2022/11/21 05:54:51;;;;;;;36.70;22.02;;;;;;;;;;5014650;28;20088;-71
2022/11/21 05:57:17;;;;;;;34.90;22.63;;;;;;;;;;5014597;28;20046;-71
2022/11/21 05:59:43;;;;;;;33.50;21.50;;;;;;;;;;5014787;28;20050;-71
2022/11/21 06:04:54;;;;;;;37.42;23.02;;;;;;;;;;5013360;28;20475;-72
2022/11/21 06:07:20;;;;;;;37.58;23.15;;;;;;;;;;5013233;28;20464;-71
2022/11/21 06:09:46;;;;;;;35.97;23.15;;;;;;;;;;5012284;28;20100;-71
2022/11/21 06:12:12;;;;;;;37.58;24.08;;;;;;;;;;5011954;28;20054;-71
2022/11/21 06:14:38;;;;;;;38.63;23.55;;;;;;;;;;5008093;28;20064;-71
2022/11/21 06:17:04;;;;;;;39.65;24.15;;;;;;;;;;4995923;28;20053;-71
2022/11/21 06:19:30;;;;;;;40.00;24.55;;;;;;;;;;5013778;28;20049;-71
2022/11/21 06:21:56;;;;;;;37.88;24.38;;;;;;;;;;5012968;28;20049;-71
2022/11/21 06:24:22;;;;;;;34.85;23.88;;;;;;;;;;5011778;28;20050;-72
2022/11/21 06:26:48;;;;;;;36.83;22.70;;;;;;;;;;5011770;28;20050;-71
2022/11/21 06:29:15;;;;;;;38.78;23.65;;;;;;;;;;5013632;28;20069;-72
2022/11/21 06:31:41;;;;;;;38.50;24.08;;;;;;;;;;4995271;28;20518;-71
2022/11/21 06:34:07;;;;;;;38.28;23.90;;;;;;;;;;5012842;28;20038;-71
2022/11/21 06:36:34;;;;;;;40.75;25.23;;;;;;;;;;5012484;28;20054;-71
2022/11/21 06:39:00;;;;;;;41.17;24.42;;;;;;;;;;5013741;28;20046;-71
2022/11/21 06:41:29;;;;;;;42.65;26.23;;;;;;;;;;5014113;28;20050;-72
2022/11/21 06:43:58;;;;;;;43.53;25.42;;;;;;;;;;5010365;28;20049;-71
2022/11/21 06:46:24;;;;;;;39.13;24.30;;;;;;;;;;5011105;28;20049;-71
2022/11/21 06:48:50;;;;;;;42.65;25.42;;;;;;;;;;5012364;28;20050;-71
2022/11/21 06:51:17;;;;;;;39.72;23.58;;;;;;;;;;5013191;28;20046;-71
2022/11/21 06:53:44;;;;;;;40.55;24.25;;;;;;;;;;5012069;28;20049;-72
2022/11/21 06:56:10;;;;;;;39.33;24.35;;;;;;;;;;5007277;28;20121;-71
2022/11/21 06:58:36;;;;;;;54.58;31.27;;;;;;;;;;5009164;28;20042;-72
2022/11/21 07:01:06;;;;;;;46.00;27.98;;;;;;;;;;5003208;28;20042;-72
2022/11/21 07:03:32;;;;;;;42.40;25.98;;;;;;;;;;5006462;28;20572;-71
2022/11/21 07:06:00;;;;;;;44.85;27.27;;;;;;;;;;5009843;28;20049;-72
2022/11/21 07:08:27;;;;;;;59.92;33.05;;;;;;;;;;5009349;28;20053;-71
2022/11/21 07:10:53;;;;;;;44.25;26.30;;;;;;;;;;5011115;28;20058;-72
2022/11/21 07:13:22;;;;;;;41.38;25.15;;;;;;;;;;5003211;28;20034;-71
2022/11/21 07:15:49;;;;;;;42.83;27.08;;;;;;;;;;5010256;28;20413;-71
2022/11/21 07:18:15;;;;;;;47.72;27.00;;;;;;;;;;5012566;28;20053;-72
2022/11/21 07:20:41;;;;;;;46.45;28.40;;;;;;;;;;4993263;28;20101;-71
2022/11/21 07:23:08;;;;;;;40.10;26.00;;;;;;;;;;5006561;28;20038;-72
2022/11/21 07:25:34;;;;;;;40.53;25.92;;;;;;;;;;5009928;28;20488;-72
2022/11/21 07:28:01;;;;;;;41.63;25.95;;;;;;;;;;4979495;28;20050;-72
2022/11/21 07:30:27;;;;;;;43.22;26.13;;;;;;;;;;5009328;28;20049;-72
2022/11/21 07:33:00;;;;;;;46.72;27.13;;;;;;;;;;5010152;28;20484;-71
2022/11/21 07:35:26;;;;;;;46.85;26.90;;;;;;;;;;5008623;28;20476;-71
2022/11/21 07:37:53;;;;;;;43.05;25.95;;;;;;;;;;5011965;28;20191;-72
2022/11/21 07:40:19;;;;;;;41.63;26.52;;;;;;;;;;4994686;28;20057;-71
2022/11/21 07:42:46;;;;;;;39.17;25.52;;;;;;;;;;4993344;28;20054;-71
2022/11/21 07:45:12;;;;;;;42.15;25.70;;;;;;;;;;5006304;28;20049;-72
2022/11/21 07:47:38;;;;;;;40.30;26.17;;;;;;;;;;5015913;28;20484;-71
2022/11/21 07:50:05;;;;;;;40.08;25.40;;;;;;;;;;5009091;28;20085;-72
2022/11/21 07:52:31;;;;;;;40.97;25.75;;;;;;;;;;5011777;28;20525;-72
2022/11/21 07:54:57;;;;;;;41.83;26.20;;;;;;;;;;4994219;28;20121;-72
2022/11/21 07:57:24;;;;;;;43.33;27.48;;;;;;;;;;5011838;28;20085;-72
2022/11/21 07:59:50;;;;;;;41.38;25.63;;;;;;;;;;5012024;28;20053;-72
2022/11/21 08:02:20;;;;;;;43.50;26.38;;;;;;;;;;5002783;28;20045;-72
2022/11/21 08:04:47;;;;;;;43.08;26.58;;;;;;;;;;4994379;28;20176;-72
2022/11/21 08:07:14;;;;;;;44.80;27.63;;;;;;;;;;5008277;28;20068;-72
2022/11/21 08:09:40;;;;;;;42.08;27.13;;;;;;;;;;5011569;28;20550;-71
2022/11/21 08:12:06;;;;;;;41.53;26.02;;;;;;;;;;5011990;28;20042;-72
2022/11/21 08:14:33;;;;;;;43.58;26.52;;;;;;;;;;5012321;28;20054;-72
2022/11/21 08:16:59;;;;;;;40.35;26.27;;;;;;;;;;4994635;28;20499;-72
2022/11/21 08:19:25;;;;;;;43.67;27.00;;;;;;;;;;5011346;28;20503;-72
2022/11/21 08:21:51;;;;;;;42.20;26.25;;;;;;;;;;4990888;28;20042;-71
2022/11/21 08:24:17;;;;;;;41.95;27.17;;;;;;;;;;5010345;28;20408;-71
2022/11/21 08:26:44;;;;;;;44.65;27.05;;;;;;;;;;5012109;28;20049;-72
2022/11/21 08:29:10;;;;;;;39.80;24.67;;;;;;;;;;5005608;28;20131;-71
2022/11/21 08:31:37;;;;;;;40.47;26.75;;;;;;;;;;5004766;28;20806;-71
2022/11/21 08:34:03;;;;;;;44.97;27.38;;;;;;;;;;5000863;28;20046;-72
2022/11/21 08:36:29;;;;;;;47.15;28.13;;;;;;;;;;5007063;28;20050;-72
2022/11/21 08:38:55;;;;;;;43.83;27.75;;;;;;;;;;5009694;28;20515;-72
2022/11/21 08:44:07;;;;;;;43.30;26.45;;;;;;;;;;5014706;28;20157;-71
2022/11/21 08:46:36;;;;;;;43.05;27.08;;;;;;;;;;5013648;28;20200;-71
2022/11/21 08:49:03;;;;;;;44.80;28.45;;;;;;;;;;5015950;28;20053;-71
2022/11/21 08:51:29;;;;;;;44.78;28.33;;;;;;;;;;5014818;28;20041;-71
2022/11/21 08:53:55;;;;;;;45.55;28.42;;;;;;;;;;4995644;28;20109;-71
2022/11/21 08:56:21;;;;;;;46.30;29.13;;;;;;;;;;5014849;28;20085;-72
2022/11/21 08:58:47;;;;;;;51.28;28.48;;;;;;;;;;5015547;28;20134;-71
2022/11/21 09:01:13;;;;;;;44.92;29.65;;;;;;;;;;5016035;28;20081;-71
2022/11/21 09:03:39;;;;;;;46.58;28.90;;;;;;;;;;5015790;28;20065;-71
2022/11/21 09:06:05;;;;;;;46.50;27.27;;;;;;;;;;5012425;28;20087;-71
2022/11/21 09:08:31;;;;;;;43.70;28.52;;;;;;;;;;5013794;28;20137;-71
2022/11/21 09:10:57;;;;;;;42.42;28.58;;;;;;;;;;5013871;28;20046;-72
2022/11/21 09:13:23;;;;;;;43.63;27.52;;;;;;;;;;5015516;28;20054;-72
2022/11/21 09:18:36;;;;;;;42.47;28.40;;;;;;;;;;4982694;28;20077;-71
2022/11/21 09:21:02;;;;;;;40.92;28.25;;;;;;;;;;5013948;28;20045;-72
2022/11/21 09:23:28;;;;;;;42.03;27.52;;;;;;;;;;5014276;28;20046;-71
2022/11/21 09:25:55;;;;;;;48.38;29.77;;;;;;;;;;5014523;28;20046;-71
2022/11/21 09:28:21;;;;;;;41.92;26.55;;;;;;;;;;5014530;28;20096;-71
2022/11/21 09:30:47;;;;;;;40.78;27.90;;;;;;;;;;5013871;28;20042;-71
2022/11/21 09:33:15;;;;;;;41.85;27.35;;;;;;;;;;5009689;28;20041;-71
2022/11/21 09:35:41;;;;;;;39.53;27.75;;;;;;;;;;4996303;28;20547;-70
2022/11/21 09:38:07;;;;;;;47.70;27.88;;;;;;;;;;4996947;28;20049;-71
2022/11/21 09:40:34;;;;;;;41.42;27.90;;;;;;;;;;5011870;28;20045;-70
2022/11/21 09:43:19;;;;;;;39.53;26.98;;;;;;;;;;5012866;28;20041;-71
2022/11/21 09:45:50;;;;;;;39.80;26.80;;;;;;;;;;5014162;28;20057;-71
2022/11/21 09:48:23;;;;;;;39.27;27.80;;;;;;;;;;5013309;28;20046;-71
2022/11/21 09:50:57;;;;;;;39.97;27.27;;;;;;;;;;5011396;28;20069;-71
2022/11/21 09:53:28;;;;;;;39.55;27.00;;;;;;;;;;5013025;28;20054;-71
2022/11/21 09:56:00;;;;;;;38.28;26.10;;;;;;;;;;5013238;28;20065;-71
2022/11/21 09:58:46;;;;;;;40.50;27.33;;;;;;;;;;5011772;28;20052;-71
2022/11/21 10:01:13;;;;;;;41.17;28.38;;;;;;;;;;5007427;28;20057;-70
2022/11/21 10:03:43;;;;;;;39.92;27.08;;;;;;;;;;4992617;28;20069;-71
2022/11/21 10:06:20;;;;;;;37.22;24.58;;;;;;;;;;5010124;28;20124;-71
2022/11/21 10:09:01;;;;;;;41.30;26.30;;;;;;;;;;5012093;28;20038;-71
2022/11/21 10:11:27;;;;;;;;;;;;;;;;;;5012788;28;20050;-70
2022/11/21 10:14:14;;;;;;;36.92;25.67;;;;;;;;;;5011273;28;20075;-72
2022/11/21 10:16:58;;;;;;;38.20;25.50;;;;;;;;;;4963628;28;20050;-71
2022/11/21 10:19:27;;;;;;;37.17;24.42;;;;;;;;;;5014180;28;20393;-72
2022/11/21 10:21:59;;;;;;;39.33;26.02;;;;;;;;;;5012741;28;20045;-71
2022/11/21 10:24:39;;;;;;;40.53;27.13;;;;;;;;;;5013441;28;20064;-71
2022/11/21 10:27:11;;;;;;;37.75;26.15;;;;;;;;;;4993717;28;20133;-70
2022/11/21 10:29:44;;;;;;;37.22;26.90;;;;;;;;;;5009262;28;20096;-70
2022/11/21 10:32:33;;;;;;;40.95;27.92;;;;;;;;;;5011297;28;20050;-71
2022/11/21 10:35:01;;;;;;;42.78;27.48;;;;;;;;;;4994516;28;20084;-73
2022/11/21 10:37:31;;;;;;;41.33;28.70;;;;;;;;;;4995011;28;20111;-71
2022/11/21 10:40:02;;;;;;;39.72;28.27;;;;;;;;;;5013399;28;20046;-75
2022/11/21 10:42:32;;;;;;;40.15;27.65;;;;;;;;;;4995372;28;20042;-71
2022/11/21 10:45:18;;;;;;;40.53;26.42;;;;;;;;;;5012405;28;20156;-72
2022/11/21 10:47:45;;;;;;;39.75;26.80;;;;;;;;;;5012231;28;20077;-73
2022/11/21 10:50:15;;;;;;;41.45;27.90;;;;;;;;;;5012124;28;20049;-73
2022/11/21 10:52:44;;;;;;;38.92;26.75;;;;;;;;;;5008496;28;20068;-72
2022/11/21 10:55:14;;;;;;;38.83;25.38;;;;;;;;;;5012445;28;20041;-73
2022/11/21 10:57:44;;;;;;;35.00;24.58;;;;;;;;;;5011757;28;20068;-73
2022/11/21 11:00:13;;;;;;;37.90;24.20;;;;;;;;;;5011806;28;20053;-73
2022/11/21 11:02:39;;;;;;;36.78;24.42;;;;;;;;;;5008519;28;20033;-73
2022/11/21 11:05:18;;;;;;;34.92;23.50;;;;;;;;;;5010739;28;20500;-73
2022/11/21 11:07:59;;;;;;;36.60;23.52;;;;;;;;;;5009099;28;20500;-73
2022/11/21 11:10:25;;;;;;;34.45;22.27;;;;;;;;;;5008951;28;20412;-72
2022/11/21 11:15:38;;;;;;;33.53;22.23;;;;;;;;;;4995730;28;20089;-73
2022/11/21 11:18:05;;;;;;;32.90;22.20;;;;;;;;;;5012967;28;20065;-73
2022/11/21 11:20:44;;;;;;;43.28;29.35;;;;;;;;;;5005935;28;20046;-73
2022/11/21 11:23:16;;;;;;;37.92;25.90;;;;;;;;;;5006716;28;20558;-73
2022/11/21 11:25:47;;;;;;;33.08;22.40;;;;;;;;;;5010989;28;20411;-73
2022/11/21 11:28:13;;;;;;;38.03;25.70;;;;;;;;;;5011322;28;20045;-73
2022/11/21 11:30:39;;;;;;;29.48;20.08;;;;;;;;;;5011432;28;20112;-73
2022/11/21 11:33:25;;;;;;;26.67;19.45;;;;;;;;;;5012936;28;20500;-73
2022/11/21 11:35:51;;;;;;;29.30;20.23;;;;;;;;;;4993333;28;20472;-73
2022/11/21 11:38:17;;;;;;;29.75;21.23;;;;;;;;;;5011856;28;20046;-73
2022/11/21 11:40:44;;;;;;;31.65;22.55;;;;;;;;;;5011095;28;20045;-73
2022/11/21 11:49:30;;;;;;;28.15;20.52;;;;;;;;;;5011135;28;20493;-73
2022/11/21 11:51:57;;;;;;;28.45;20.70;;;;;;;;;;5011690;28;20045;-73
2022/11/21 11:54:29;;;;;;;28.55;20.17;;;;;;;;;;5009645;28;20045;-73
2022/11/21 11:56:55;;;;;;;25.42;18.45;;;;;;;;;;4994938;28;20088;-73
2022/11/21 11:59:27;;;;;;;25.45;18.05;;;;;;;;;;5011704;28;20064;-73
2022/11/21 12:02:01;;;;;;;25.92;19.35;;;;;;;;;;5009329;28;20057;-73
2022/11/21 12:04:31;;;;;;;26.23;18.45;;;;;;;;;;5011244;28;20142;-73
2022/11/21 12:07:15;;;;;;;24.45;17.73;;;;;;;;;;5001007;28;20065;-73
2022/11/21 12:09:41;;;;;;;24.50;18.40;;;;;;;;;;5012331;28;20381;-73
2022/11/21 12:12:16;;;;;;;26.40;18.08;;;;;;;;;;5010463;28;20050;-73
2022/11/21 12:17:48;;;;;;;26.00;17.35;;;;;;;;;;5008447;28;20050;-73
2022/11/21 12:20:17;;;;;;;25.27;18.13;;;;;;;;;;5009745;28;20081;-73
2022/11/21 12:22:44;;;;;;;24.50;17.63;;;;;;;;;;5007258;28;20097;-73
2022/11/21 12:25:13;;;;;;;22.83;16.98;;;;;;;;;;5008087;28;20042;-73
2022/11/21 12:27:40;;;;;;;28.77;18.40;;;;;;;;;;5009345;28;20050;-73
2022/11/21 12:30:25;;;;;;;26.67;18.73;;;;;;;;;;5015560;28;20496;-73
2022/11/21 12:33:03;;;;;;;26.45;18.73;;;;;;;;;;4992483;28;20113;-73
2022/11/21 12:35:38;;;;;;;26.00;17.77;;;;;;;;;;4992609;28;20104;-73
2022/11/21 12:38:07;;;;;;;25.80;17.70;;;;;;;;;;5001060;28;20050;-73
2022/11/21 12:40:36;;;;;;;25.75;17.83;;;;;;;;;;4993335;28;20483;-73
2022/11/21 12:43:20;;;;;;;24.88;17.83;;;;;;;;;;4988923;28;20053;-73
2022/11/21 12:45:50;;;;;;;25.92;18.17;;;;;;;;;;5011126;28;20389;-73
2022/11/21 12:57:00;;;;;;;26.58;17.02;;;;;;;;;;5014884;28;20128;-73
2022/11/21 12:59:27;;;;;;;26.55;18.23;;;;;;;;;;5010936;28;20050;-73
2022/11/21 13:02:11;;;;;;;25.70;17.75;;;;;;;;;;5010544;28;20046;-73
2022/11/21 13:04:39;;;;;;;26.08;17.67;;;;;;;;;;5011395;28;20042;-73
2022/11/21 13:07:06;;;;;;;25.23;17.27;;;;;;;;;;5003781;28;20386;-73
2022/11/21 13:09:36;;;;;;;25.98;17.40;;;;;;;;;;4990719;28;20042;-73
2022/11/21 13:12:05;;;;;;;29.15;17.45;;;;;;;;;;5011796;28;20042;-73
2022/11/21 13:14:46;;;;;;;27.05;17.02;;;;;;;;;;5016347;28;20071;-74
2022/11/21 13:17:18;;;;;;;24.95;17.35;;;;;;;;;;5024197;28;20132;-73
2022/11/21 13:19:50;;;;;;;24.80;16.67;;;;;;;;;;5010892;28;20515;-73
2022/11/21 13:22:34;;;;;;;27.25;18.20;;;;;;;;;;5008449;28;20459;-73
2022/11/21 13:25:11;;;;;;;25.52;17.27;;;;;;;;;;4992243;28;20053;-73
2022/11/21 13:27:37;;;;;;;24.83;16.80;;;;;;;;;;5000727;28;20761;-74
2022/11/21 13:30:06;;;;;;;25.95;18.10;;;;;;;;;;4992566;28;20054;-73
2022/11/21 13:32:52;;;;;;;26.23;17.45;;;;;;;;;;5013679;28;20057;-74
2022/11/21 13:35:18;;;;;;;27.67;18.83;;;;;;;;;;4996786;28;20135;-74
2022/11/21 13:38:03;;;;;;;26.83;18.77;;;;;;;;;;5014271;28;20050;-73
2022/11/21 13:40:29;;;;;;;26.77;18.27;;;;;;;;;;5002355;28;20038;-73
2022/11/21 13:43:08;;;;;;;24.80;17.70;;;;;;;;;;4986952;28;20083;-74
2022/11/21 13:45:47;;;;;;;27.23;18.70;;;;;;;;;;5003646;28;20049;-74
2022/11/21 13:48:13;;;;;;;26.33;17.70;;;;;;;;;;5009854;28;20042;-73
2022/11/21 13:50:42;;;;;;;26.08;17.65;;;;;;;;;;4994563;28;20057;-73
2022/11/21 13:53:27;;;;;;;25.80;18.35;;;;;;;;;;4987093;28;20050;-74
2022/11/21 13:56:05;;;;;;;26.05;18.13;;;;;;;;;;5007133;28;20096;-74
2022/11/21 13:58:31;;;;;;;27.15;17.38;;;;;;;;;;5011403;28;20408;-73
2022/11/21 14:01:23;;;;;;;28.23;17.90;;;;;;;;;;5008229;28;20041;-74
2022/11/21 14:03:56;;;;;;;26.63;18.48;;;;;;;;;;4982768;28;20068;-74
2022/11/21 14:06:36;;;;;;;27.75;18.77;;;;;;;;;;5004461;28;20065;-74
2022/11/21 14:09:19;;;;;;;26.52;19.33;;;;;;;;;;5012153;28;20045;-74
2022/11/21 14:12:00;;;;;;;29.50;19.48;;;;;;;;;;4998284;28;20037;-73
2022/11/21 14:14:32;;;;;;;28.70;19.17;;;;;;;;;;4993880;28;20052;-74
2022/11/21 14:17:25;;;;;;;32.78;21.35;;;;;;;;;;5011613;28;20122;-74
2022/11/21 14:19:51;;;;;;;32.95;21.05;;;;;;;;;;4992907;28;20511;-73
2022/11/21 14:22:44;;;;;;;34.72;22.73;;;;;;;;;;5003403;28;20551;-72
2022/11/21 14:25:15;;;;;;;34.60;21.90;;;;;;;;;;4966625;28;20061;-73
2022/11/21 14:27:45;;;;;;;32.92;22.40;;;;;;;;;;5013792;28;20137;-73
2022/11/21 14:30:31;;;;;;;39.00;24.67;;;;;;;;;;5011600;28;20046;-73
2022/11/21 14:32:57;;;;;;;38.50;23.17;;;;;;;;;;4994696;28;20053;-73
2022/11/21 14:35:24;;;;;;;40.72;25.35;;;;;;;;;;4999869;28;20168;-73
2022/11/21 14:37:50;;;;;;;42.47;27.05;;;;;;;;;;5007700;28;20119;-73
2022/11/21 14:40:21;;;;;;;44.50;28.63;;;;;;;;;;5005025;28;20046;-72
2022/11/21 14:42:47;;;;;;;43.43;27.63;;;;;;;;;;5003130;28;20116;-73
2022/11/21 14:45:16;;;;;;;41.08;26.25;;;;;;;;;;5001242;28;20791;-72
2022/11/21 14:47:47;;;;;;;43.05;25.23;;;;;;;;;;5011735;28;20049;-73
2022/11/21 14:50:21;;;;;;;47.40;27.53;;;;;;;;;;4995130;28;20154;-72
2022/11/21 14:52:55;;;;;;;50.92;26.83;;;;;;;;;;5011968;28;20064;-72
2022/11/21 14:55:23;;;;;;;51.17;28.17;;;;;;;;;;5013294;28;20065;-72
2022/11/21 14:57:50;;;;;;;54.28;28.55;;;;;;;;;;4977165;28;20085;-72